Time;durP1;ratioP1;P1;durP2;ratioP2;P2;SDS_P1;SDS_P2;PMS_P1;PMS_P2;Temp;Humidity;BMP_temperature;BMP_pressure;BME280_temperature;BME280_humidity;BME280_pressure;Samples;Min_cycle;Max_cycle;Signal;HPM_P1;HPM_P2
2022/08/04 00:01:50;;;;;;;3.95;2.78;;;26.00;52.70;;;;;;5085236;28;20039;-53
2022/08/04 00:04:29;;;;;;;4.20;2.42;;;26.00;52.50;;;;;;5064645;28;20032;-54
2022/08/04 00:07:16;;;;;;;2.13;1.90;;;26.00;52.80;;;;;;5083028;28;20028;-52
2022/08/04 00:09:53;;;;;;;2.95;2.40;;;26.00;52.40;;;;;;5083079;28;20028;-53
2022/08/04 00:12:18;;;;;;;3.88;2.58;;;26.00;52.50;;;;;;5082650;28;20032;-53
2022/08/04 00:14:48;;;;;;;4.15;2.35;;;26.00;52.80;;;;;;5084456;28;20035;-55
2022/08/04 00:17:15;;;;;;;3.17;2.50;;;26.00;52.80;;;;;;5083633;28;20054;-55
2022/08/04 00:19:46;;;;;;;2.42;2.22;;;26.00;52.60;;;;;;5082963;28;20024;-52
2022/08/04 00:22:12;;;;;;;2.90;2.03;;;26.00;52.70;;;;;;5066985;28;20020;-55
2022/08/04 00:24:38;;;;;;;3.22;2.30;;;26.00;52.80;;;;;;5085053;28;20031;-52
2022/08/04 00:27:04;;;;;;;3.10;2.35;;;25.90;52.70;;;;;;5084977;28;20396;-52
2022/08/04 00:29:30;;;;;;;2.38;2.17;;;26.00;53.00;;;;;;5083256;28;20047;-52
2022/08/04 00:31:55;;;;;;;2.65;2.20;;;26.00;53.10;;;;;;5084872;28;20043;-52
2022/08/04 00:34:23;;;;;;;2.22;2.00;;;26.00;53.10;;;;;;5084568;28;20494;-53
2022/08/04 00:36:49;;;;;;;2.20;2.00;;;26.00;53.10;;;;;;5083315;28;20028;-54
2022/08/04 00:39:15;;;;;;;2.72;2.08;;;26.00;53.10;;;;;;5084957;28;20039;-52
2022/08/04 00:41:49;;;;;;;3.03;2.25;;;26.00;52.90;;;;;;5083442;28;20038;-53
2022/08/04 00:44:24;;;;;;;3.03;2.00;;;25.90;53.00;;;;;;5084478;28;20032;-54
2022/08/04 00:47:03;;;;;;;2.45;2.10;;;26.00;53.10;;;;;;5084302;28;20058;-57
2022/08/04 00:49:59;;;;;;;2.58;2.38;;;26.00;52.70;;;;;;5083056;28;20028;-50
2022/08/04 00:52:27;;;;;;;;;;;25.90;52.70;;;;;;5064848;28;20029;-53
2022/08/04 00:55:04;;;;;;;3.58;2.33;;;25.90;52.70;;;;;;5063632;28;20361;-53
2022/08/04 00:57:39;;;;;;;2.50;2.30;;;25.90;53.00;;;;;;5083973;28;20036;-54
2022/08/04 01:00:12;;;;;;;3.05;2.20;;;25.90;52.90;;;;;;5066917;28;20024;-55
2022/08/04 01:02:46;;;;;;;2.40;2.20;;;25.90;53.00;;;;;;5084230;28;20594;-52
2022/08/04 01:05:44;;;;;;;2.70;1.97;;;25.90;52.90;;;;;;5084470;28;20098;-55
2022/08/04 01:08:47;;;;;;;3.63;2.30;;;25.90;52.70;;;;;;5081980;28;20027;-52
2022/08/04 01:11:24;;;;;;;2.03;1.80;;;25.90;52.80;;;;;;5083928;28;20021;-52
2022/08/04 01:14:17;;;;;;;3.08;2.35;;;25.90;52.90;;;;;;5061918;28;20051;-54
2022/08/04 01:16:48;;;;;;;2.92;2.17;;;25.90;52.90;;;;;;5095564;27;20024;-53
2022/08/04 01:20:00;;;;;;;2.22;2.03;;;25.90;53.10;;;;;;5102745;28;20520;-52
2022/08/04 01:22:32;;;;;;;2.45;1.98;;;25.90;53.10;;;;;;5019783;28;20046;-51
2022/08/04 01:25:16;;;;;;;3.53;2.00;;;25.90;53.10;;;;;;5077444;28;20119;-53
2022/08/04 01:28:05;;;;;;;2.03;1.90;;;25.90;53.30;;;;;;5083378;28;20036;-53
2022/08/04 01:30:31;;;;;;;4.90;2.45;;;25.90;53.30;;;;;;5063660;28;20397;-53
2022/08/04 01:33:03;;;;;;;2.45;2.25;;;25.90;53.30;;;;;;5065248;28;20032;-52
2022/08/04 01:35:37;;;;;;;2.65;2.00;;;25.90;53.20;;;;;;5083058;28;20092;-52
2022/08/04 01:38:33;;;;;;;2.65;2.13;;;25.90;53.40;;;;;;5047428;28;20621;-54
2022/08/04 01:41:01;;;;;;;;;;;25.90;53.30;;;;;;5040963;28;20061;-53
2022/08/04 01:43:28;;;;;;;1.90;1.80;;;25.90;53.30;;;;;;5083944;28;19961;-53
2022/08/04 01:46:01;;;;;;;1.90;1.80;;;25.90;53.10;;;;;;5084229;28;20036;-53
2022/08/04 01:48:27;;;;;;;2.30;2.10;;;25.90;52.80;;;;;;5082466;28;20024;-53
2022/08/04 01:50:53;;;;;;;2.35;2.15;;;25.80;52.60;;;;;;5083876;28;20035;-53
2022/08/04 01:53:19;;;;;;;2.33;2.10;;;25.80;52.60;;;;;;5083358;28;20027;-51
2022/08/04 01:55:48;;;;;;;2.45;2.25;;;25.80;52.40;;;;;;5082291;28;20031;-52
2022/08/04 01:58:16;;;;;;;1.98;1.83;;;25.80;52.70;;;;;;5082128;28;20754;-55
2022/08/04 02:00:44;;;;;;;1.85;1.75;;;25.80;52.60;;;;;;5081524;28;20028;-53
2022/08/04 02:03:12;;;;;;;2.10;1.90;;;25.80;52.90;;;;;;5083469;28;20039;-54
2022/08/04 02:05:38;;;;;;;1.80;1.70;;;25.80;52.90;;;;;;5083411;28;20102;-54
2022/08/04 02:08:08;;;;;;;2.63;2.20;;;25.80;52.90;;;;;;5061585;28;20041;-54
2022/08/04 02:11:04;;;;;;;1.77;1.67;;;25.80;52.90;;;;;;5062918;28;20448;-53
2022/08/04 02:13:44;;;;;;;2.15;1.98;;;25.80;52.70;;;;;;5076002;28;20036;-55
2022/08/04 02:16:36;;;;;;;2.20;2.00;;;25.80;52.70;;;;;;5063815;28;20083;-52
2022/08/04 02:19:56;;;;;;;1.85;1.73;;;25.80;52.70;;;;;;5062822;28;20158;-53
2022/08/04 02:22:22;;;;;;;2.28;2.08;;;25.80;52.50;;;;;;5009159;28;20502;-52
2022/08/04 02:25:01;;;;;;;2.75;1.98;;;25.80;52.50;;;;;;5065334;28;20051;-52
2022/08/04 02:27:28;;;;;;;2.10;1.88;;;25.80;52.70;;;;;;5063128;28;20043;-54
2022/08/04 02:29:58;;;;;;;2.25;1.88;;;25.80;52.60;;;;;;5062670;28;20016;-55
2022/08/04 02:32:32;;;;;;;2.20;2.00;;;25.80;52.50;;;;;;5061722;28;20029;-54
2022/08/04 02:35:05;;;;;;;2.97;1.88;;;25.80;52.60;;;;;;5062578;28;20032;-53
2022/08/04 02:37:31;;;;;;;1.92;1.83;;;25.80;52.70;;;;;;5042711;28;20086;-52
2022/08/04 02:39:58;;;;;;;2.42;1.88;;;25.80;52.30;;;;;;5044312;28;20104;-53
2022/08/04 02:42:23;;;;;;;3.25;1.63;;;25.70;52.20;;;;;;5058098;28;20273;-50
2022/08/04 02:44:50;;;;;;;2.22;1.80;;;25.80;52.30;;;;;;5066702;28;20029;-53
2022/08/04 02:47:19;;;;;;;2.08;1.88;;;25.80;52.50;;;;;;5069119;28;20024;-53
2022/08/04 02:49:45;;;;;;;5.03;2.20;;;25.80;52.30;;;;;;5084763;28;20664;-51
2022/08/04 02:52:11;;;;;;;1.92;1.80;;;25.80;52.10;;;;;;5082036;28;20052;-52
2022/08/04 02:54:41;;;;;;;2.50;1.92;;;25.70;51.90;;;;;;5055174;28;20089;-52
2022/08/04 02:57:10;;;;;;;2.95;1.95;;;25.70;51.90;;;;;;5086299;28;20024;-53
2022/08/04 02:59:59;;;;;;;3.83;1.98;;;25.80;51.70;;;;;;5084287;28;20032;-52
2022/08/04 03:02:35;;;;;;;1.98;1.77;;;25.70;52.20;;;;;;5070340;28;20560;-54
2022/08/04 03:05:06;;;;;;;2.25;1.85;;;25.70;51.50;;;;;;5085822;28;20111;-54
2022/08/04 03:08:02;;;;;;;3.28;2.20;;;25.70;51.50;;;;;;5084115;28;20074;-52
2022/08/04 03:11:10;;;;;;;1.77;1.67;;;25.70;51.30;;;;;;5070448;28;20020;-50
2022/08/04 03:14:06;;;;;;;1.98;1.65;;;25.70;51.30;;;;;;5065611;28;20063;-54
2022/08/04 03:16:50;;;;;;;;;;;25.70;51.50;;;;;;5080188;28;20225;-53
2022/08/04 03:19:33;;;;;;;2.13;2.03;;;25.70;51.20;;;;;;5085366;28;19961;-51
2022/08/04 03:22:27;;;;;;;2.17;1.98;;;25.70;51.30;;;;;;5067962;28;20024;-53
2022/08/04 03:25:01;;;;;;;2.65;1.95;;;25.70;51.30;;;;;;5064930;28;20044;-52
2022/08/04 03:27:45;;;;;;;1.80;1.70;;;25.70;51.20;;;;;;5066028;28;20347;-55
2022/08/04 03:30:23;;;;;;;2.00;1.80;;;25.70;51.00;;;;;;5085897;28;20044;-52
2022/08/04 03:33:07;;;;;;;2.58;1.75;;;25.70;51.20;;;;;;5060775;28;21507;-54
2022/08/04 03:35:38;;;;;;;2.42;2.22;;;25.70;51.20;;;;;;5085467;28;20066;-52
2022/08/04 03:38:20;;;;;;;1.92;1.83;;;25.70;51.30;;;;;;5084713;28;20246;-55
2022/08/04 03:41:07;;;;;;;2.15;1.95;;;25.70;51.40;;;;;;5084393;28;20028;-55
2022/08/04 03:43:53;;;;;;;2.08;1.92;;;25.70;51.30;;;;;;5083812;28;20444;-54
2022/08/04 03:46:37;;;;;;;;;;;25.70;51.50;;;;;;5084540;28;20028;-53
2022/08/04 03:49:24;;;;;;;2.10;1.90;;;25.70;51.50;;;;;;5064640;28;19984;-52
2022/08/04 03:55:18;;;;;;;2.30;1.75;;;25.70;52.30;;;;;;5072841;28;20035;-52
2022/08/04 03:58:20;;;;;;;2.85;2.35;;;25.70;51.30;;;;;;5084404;28;20523;-52
2022/08/04 04:00:57;;;;;;;3.08;1.50;;;25.70;51.50;;;;;;5049677;28;20028;-55
2022/08/04 04:03:49;;;;;;;1.92;1.70;;;25.70;51.40;;;;;;5068400;28;20024;-52
2022/08/04 04:06:40;;;;;;;2.33;2.10;;;25.70;51.50;;;;;;5078080;28;20032;-52
2022/08/04 04:09:26;;;;;;;2.10;1.83;;;25.70;51.50;;;;;;5083000;28;20736;-52
2022/08/04 04:12:20;;;;;;;3.65;2.22;;;25.70;51.40;;;;;;5083208;28;20038;-54
2022/08/04 04:15:10;;;;;;;2.33;2.00;;;25.60;51.30;;;;;;5067192;28;20028;-56
2022/08/04 04:18:02;;;;;;;2.15;1.90;;;25.60;51.30;;;;;;5084493;28;20036;-51
2022/08/04 04:20:50;;;;;;;2.20;2.00;;;25.70;51.10;;;;;;5082855;28;20020;-50
2022/08/04 04:23:29;;;;;;;2.28;1.85;;;25.70;51.00;;;;;;5068771;28;20024;-54
2022/08/04 04:25:58;;;;;;;2.35;2.05;;;25.70;51.10;;;;;;5062447;28;20880;-54
2022/08/04 04:28:41;;;;;;;1.90;1.70;;;25.70;51.20;;;;;;5067580;27;20432;-52
2022/08/04 04:31:37;;;;;;;3.03;2.17;;;25.60;51.00;;;;;;5073462;28;20058;-52
2022/08/04 04:37:13;;;;;;;6.43;2.00;;;25.70;52.00;;;;;;5056032;28;20036;-54
2022/08/04 04:40:02;;;;;;;2.55;1.73;;;25.70;51.90;;;;;;5057000;28;20040;-52
2022/08/04 04:42:43;;;;;;;6.28;2.83;;;25.70;52.00;;;;;;5048645;28;20528;-51
2022/08/04 04:45:12;;;;;;;7.43;2.33;;;25.70;52.00;;;;;;5039942;28;20051;-53
2022/08/04 04:48:07;;;;;;;7.55;2.08;;;25.70;52.10;;;;;;5038322;28;20108;-55
2022/08/04 04:50:45;;;;;;;6.30;2.28;;;25.80;52.20;;;;;;5038060;28;20033;-55
2022/08/04 04:53:34;;;;;;;2.15;1.65;;;25.70;52.00;;;;;;5039952;28;20039;-52
2022/08/04 04:56:33;;;;;;;2.65;1.95;;;25.80;52.00;;;;;;5037987;28;20025;-56
2022/08/04 04:58:59;;;;;;;5.25;2.33;;;25.80;51.80;;;;;;5012443;28;20684;-52
2022/08/04 05:01:29;;;;;;;4.35;1.70;;;25.80;51.70;;;;;;5036721;28;20450;-56
2022/08/04 05:04:02;;;;;;;2.28;1.80;;;25.80;51.80;;;;;;5039513;28;20033;-51
2022/08/04 05:06:56;;;;;;;2.22;1.90;;;25.80;51.70;;;;;;5035516;28;20028;-50
2022/08/04 05:09:59;;;;;;;2.63;2.13;;;25.80;51.70;;;;;;5020993;28;20489;-56
2022/08/04 05:12:51;;;;;;;2.00;1.90;;;25.80;51.30;;;;;;5037705;28;20035;-54
2022/08/04 05:15:16;;;;;;;2.30;1.90;;;25.80;51.40;;;;;;5055597;28;20025;-52
2022/08/04 05:17:44;;;;;;;1.77;1.67;;;25.80;51.10;;;;;;5037671;28;20040;-52
2022/08/04 05:20:18;;;;;;;2.90;2.00;;;25.80;51.10;;;;;;5053318;28;20057;-55
2022/08/04 05:22:58;;;;;;;1.83;1.67;;;25.80;51.00;;;;;;5055825;28;20090;-52
2022/08/04 05:25:32;;;;;;;3.63;1.88;;;25.80;50.80;;;;;;5037532;28;20036;-55
2022/08/04 05:28:14;;;;;;;2.50;1.90;;;25.90;50.90;;;;;;5039880;28;20033;-55
2022/08/04 05:30:47;;;;;;;3.42;1.83;;;25.90;51.30;;;;;;5035975;28;20528;-55
2022/08/04 05:33:13;;;;;;;4.90;2.30;;;25.90;51.20;;;;;;5035657;28;20041;-53
2022/08/04 05:35:44;;;;;;;4.00;1.70;;;25.90;51.40;;;;;;5050077;28;20045;-50
2022/08/04 05:38:11;;;;;;;1.95;1.55;;;25.80;51.30;;;;;;5050633;28;20182;-51
2022/08/04 05:40:37;;;;;;;2.08;1.88;;;25.90;51.40;;;;;;5052455;28;20405;-55
2022/08/04 05:43:02;;;;;;;2.33;1.42;;;25.90;51.10;;;;;;5053170;28;20036;-53
2022/08/04 05:45:28;;;;;;;3.95;1.67;;;25.90;51.10;;;;;;5054371;28;20037;-54
2022/08/04 05:47:53;;;;;;;3.55;1.65;;;25.90;51.30;;;;;;5039363;28;20032;-52
2022/08/04 05:50:19;;;;;;;2.63;1.42;;;25.90;50.90;;;;;;5040062;28;20764;-56
2022/08/04 05:52:44;;;;;;;2.42;1.33;;;25.90;51.20;;;;;;5038555;28;20448;-58
2022/08/04 05:55:11;;;;;;;1.83;1.73;;;25.90;51.50;;;;;;5038261;28;20047;-53
2022/08/04 05:57:39;;;;;;;2.15;1.40;;;25.90;51.40;;;;;;5037559;28;20037;-53
2022/08/04 06:00:05;;;;;;;2.80;1.52;;;25.80;51.10;;;;;;5036465;28;20049;-53
2022/08/04 06:02:31;;;;;;;2.92;1.50;;;25.90;51.00;;;;;;5039637;28;20041;-56
2022/08/04 06:04:56;;;;;;;2.13;1.60;;;25.80;50.90;;;;;;5038347;28;20068;-52
2022/08/04 06:07:22;;;;;;;2.40;1.65;;;25.80;51.00;;;;;;5038357;28;20033;-54
2022/08/04 06:09:47;;;;;;;3.10;1.50;;;25.80;50.90;;;;;;5039106;28;20025;-56
2022/08/04 06:12:24;;;;;;;1.67;1.48;;;25.80;51.20;;;;;;5041120;28;20026;-55
2022/08/04 06:14:52;;;;;;;2.90;1.67;;;25.80;51.10;;;;;;5042036;28;20717;-54
2022/08/04 06:17:29;;;;;;;3.65;2.00;;;25.80;51.20;;;;;;5032712;28;20052;-56
2022/08/04 06:19:55;;;;;;;1.75;1.40;;;25.80;51.10;;;;;;5041597;28;20097;-53
2022/08/04 06:22:21;;;;;;;1.65;1.55;;;25.80;51.20;;;;;;5059254;28;20136;-53
2022/08/04 06:24:47;;;;;;;1.73;1.63;;;25.80;51.40;;;;;;5025480;28;20393;-55
2022/08/04 06:27:12;;;;;;;2.33;1.90;;;25.90;51.50;;;;;;5043450;28;20029;-53
2022/08/04 06:29:40;;;;;;;2.05;1.52;;;25.80;51.50;;;;;;5057759;28;20083;-55
2022/08/04 06:34:52;;;;;;;1.52;1.42;;;25.90;51.60;;;;;;5043267;28;20052;-53
2022/08/04 06:37:18;;;;;;;1.77;1.55;;;25.90;51.60;;;;;;5041359;28;20090;-51
2022/08/04 06:39:43;;;;;;;1.70;1.60;;;25.90;51.60;;;;;;5057393;28;20024;-54
2022/08/04 06:42:08;;;;;;;1.52;1.42;;;25.90;51.70;;;;;;5041768;28;20565;-52
2022/08/04 06:44:34;;;;;;;2.20;1.52;;;25.90;51.50;;;;;;5041613;28;20032;-52
2022/08/04 06:46:59;;;;;;;2.75;1.50;;;25.90;51.60;;;;;;5058850;28;20112;-52
2022/08/04 06:49:25;;;;;;;2.13;1.45;;;25.90;51.30;;;;;;5040989;28;20024;-54
2022/08/04 06:51:50;;;;;;;2.95;1.38;;;25.90;51.40;;;;;;5041988;28;20025;-52
2022/08/04 06:54:16;;;;;;;1.77;1.67;;;25.90;51.00;;;;;;5043389;28;20110;-50
2022/08/04 06:56:42;;;;;;;1.75;1.63;;;25.90;51.00;;;;;;5043292;28;20068;-51
2022/08/04 06:59:07;;;;;;;1.88;1.67;;;26.00;50.90;;;;;;5058109;28;20800;-56
2022/08/04 07:01:34;;;;;;;2.85;1.60;;;26.00;51.10;;;;;;5041430;28;20051;-53
2022/08/04 07:03:59;;;;;;;1.77;1.45;;;26.00;51.00;;;;;;5058494;28;20052;-52
2022/08/04 07:06:25;;;;;;;1.55;1.45;;;26.00;50.80;;;;;;5041674;28;20075;-55
2022/08/04 07:08:51;;;;;;;3.92;1.92;;;26.00;50.70;;;;;;5040580;28;20576;-50
2022/08/04 07:11:16;;;;;;;2.28;1.98;;;26.00;50.70;;;;;;5057319;28;20032;-55
2022/08/04 07:13:43;;;;;;;2.25;1.42;;;26.00;50.90;;;;;;5041286;28;20094;-49
2022/08/04 07:16:09;;;;;;;4.45;1.63;;;26.00;50.60;;;;;;5041401;28;20044;-49
2022/08/04 07:18:34;;;;;;;3.15;1.65;;;26.00;50.50;;;;;;5057230;28;20037;-54
2022/08/04 07:21:00;;;;;;;2.35;1.95;;;26.00;51.20;;;;;;5024328;28;20043;-51
2022/08/04 07:23:25;;;;;;;2.15;1.70;;;26.00;51.00;;;;;;5039687;28;20021;-50
2022/08/04 07:25:56;;;;;;;2.95;1.55;;;25.90;51.10;;;;;;5041565;28;20043;-52
2022/08/04 07:28:26;;;;;;;1.90;1.60;;;26.00;51.10;;;;;;5042387;28;20029;-54
2022/08/04 07:30:52;;;;;;;1.88;1.50;;;26.00;51.20;;;;;;5014030;28;20568;-51
2022/08/04 07:33:18;;;;;;;2.45;1.70;;;26.00;51.30;;;;;;5040506;28;20051;-59
2022/08/04 07:35:49;;;;;;;3.65;2.03;;;26.00;51.40;;;;;;5038009;28;20037;-53
2022/08/04 07:38:15;;;;;;;2.40;1.50;;;26.00;51.50;;;;;;5040414;28;20085;-53
2022/08/04 07:40:40;;;;;;;1.65;1.48;;;26.00;51.60;;;;;;5038906;28;20036;-51
2022/08/04 07:43:06;;;;;;;2.38;1.75;;;26.00;51.80;;;;;;5038958;28;20108;-51
2022/08/04 07:45:31;;;;;;;3.08;1.33;;;26.00;51.80;;;;;;5038424;28;20114;-52
2022/08/04 07:47:57;;;;;;;3.63;1.95;;;26.00;52.00;;;;;;5038879;28;20135;-54
2022/08/04 07:50:23;;;;;;;1.80;1.67;;;26.00;51.90;;;;;;5038311;28;20176;-52
2022/08/04 07:52:49;;;;;;;1.90;1.20;;;26.00;52.10;;;;;;5039145;28;20040;-51
2022/08/04 07:55:14;;;;;;;1.50;1.30;;;26.00;52.20;;;;;;5055711;28;20025;-51
2022/08/04 07:57:40;;;;;;;2.92;1.60;;;26.00;52.30;;;;;;5038684;28;20048;-55
2022/08/04 08:00:09;;;;;;;3.00;1.42;;;26.00;52.30;;;;;;5039931;28;20611;-56
2022/08/04 08:02:34;;;;;;;1.38;1.27;;;26.00;52.40;;;;;;5038763;28;20040;-53
2022/08/04 08:05:00;;;;;;;1.95;1.45;;;26.00;52.50;;;;;;5039907;28;20021;-52
2022/08/04 08:07:25;;;;;;;4.18;1.30;;;26.00;52.50;;;;;;5054659;28;20049;-56
2022/08/04 08:09:51;;;;;;;1.52;1.30;;;26.00;52.70;;;;;;5038151;28;20025;-56
2022/08/04 08:12:16;;;;;;;1.40;1.30;;;26.00;52.60;;;;;;5038356;28;20028;-56
2022/08/04 08:14:42;;;;;;;1.40;1.20;;;26.00;52.80;;;;;;5039797;28;20033;-52
2022/08/04 08:17:07;;;;;;;1.42;1.33;;;26.10;52.80;;;;;;5055193;28;20108;-56
2022/08/04 08:19:34;;;;;;;1.20;1.10;;;26.10;52.80;;;;;;5038452;28;20409;-58
2022/08/04 08:21:59;;;;;;;1.30;1.20;;;26.10;52.90;;;;;;5037916;28;20036;-58
2022/08/04 08:24:25;;;;;;;1.52;1.42;;;26.10;52.90;;;;;;5038079;28;20033;-54
2022/08/04 08:26:50;;;;;;;1.30;1.20;;;26.10;52.90;;;;;;5039681;28;20116;-56
2022/08/04 08:29:16;;;;;;;1.38;1.27;;;26.10;53.00;;;;;;5037806;28;20116;-56
2022/08/04 08:31:42;;;;;;;2.70;1.30;;;26.10;53.00;;;;;;5037882;28;20032;-56
2022/08/04 08:34:09;;;;;;;1.00;0.90;;;26.10;53.10;;;;;;5039194;28;20060;-56
2022/08/04 08:36:38;;;;;;;1.70;1.23;;;26.10;53.10;;;;;;5037732;28;20261;-56
2022/08/04 08:39:23;;;;;;;1.92;1.25;;;26.10;53.20;;;;;;5037658;28;20537;-54
2022/08/04 08:42:06;;;;;;;2.30;1.55;;;26.10;53.20;;;;;;5055739;28;20029;-53
2022/08/04 08:45:10;;;;;;;2.10;1.50;;;26.10;53.30;;;;;;5071403;28;21518;-54
2022/08/04 08:47:48;;;;;;;1.58;1.48;;;26.10;53.30;;;;;;5034030;28;20104;-56
2022/08/04 08:50:48;;;;;;;1.50;1.40;;;26.10;53.30;;;;;;5020954;28;20532;-59
2022/08/04 08:53:53;;;;;;;1.35;1.25;;;26.10;53.40;;;;;;5023431;28;20017;-55
2022/08/04 08:56:37;;;;;;;0.85;0.82;;;26.10;53.40;;;;;;5036635;28;20558;-53
2022/08/04 08:59:38;;;;;;;1.20;1.10;;;26.10;53.40;;;;;;5036302;28;20032;-55
2022/08/04 09:02:28;;;;;;;1.55;1.10;;;26.10;53.40;;;;;;5037632;28;20136;-54
2022/08/04 09:05:05;;;;;;;2.03;1.45;;;26.10;53.50;;;;;;5037056;28;21757;-55
2022/08/04 09:07:46;;;;;;;1.77;1.60;;;26.10;53.60;;;;;;5039556;28;20074;-53
2022/08/04 09:10:19;;;;;;;1.20;1.10;;;26.10;53.60;;;;;;5053603;28;20048;-56
2022/08/04 09:12:54;;;;;;;1.40;1.30;;;26.10;53.60;;;;;;5037178;28;20037;-52
2022/08/04 09:15:34;;;;;;;1.50;1.40;;;26.10;53.70;;;;;;5034999;28;20377;-58
2022/08/04 09:18:30;;;;;;;2.40;1.33;;;26.10;53.80;;;;;;5070565;28;20040;-57
2022/08/04 09:21:37;;;;;;;1.85;1.35;;;26.20;53.70;;;;;;5026583;28;20028;-56
2022/08/04 09:24:05;;;;;;;;;;;26.20;53.80;;;;;;5037455;28;20116;-53
2022/08/04 09:26:49;;;;;;;1.85;1.17;;;26.20;53.90;;;;;;5070342;28;19909;-52
2022/08/04 09:29:36;;;;;;;1.55;1.45;;;26.20;53.90;;;;;;5036682;28;20036;-49
2022/08/04 09:32:16;;;;;;;1.48;1.38;;;26.20;53.90;;;;;;5055983;28;20033;-55
2022/08/04 09:34:55;;;;;;;1.25;1.15;;;26.20;53.90;;;;;;5036588;28;20033;-54
2022/08/04 09:37:44;;;;;;;1.58;1.48;;;26.20;53.90;;;;;;5038047;28;20116;-52
2022/08/04 09:40:28;;;;;;;1.60;1.38;;;26.20;53.90;;;;;;5054449;28;20751;-53
2022/08/04 09:43:01;;;;;;;1.35;1.25;;;26.20;54.00;;;;;;5036448;28;20029;-52
2022/08/04 09:45:37;;;;;;;1.25;1.15;;;26.20;53.90;;;;;;5053832;28;20021;-53
2022/08/04 09:48:27;;;;;;;1.38;1.27;;;26.20;54.00;;;;;;5043587;28;20040;-53
2022/08/04 09:50:56;;;;;;;1.33;1.23;;;26.20;54.00;;;;;;5037910;28;21686;-53
2022/08/04 09:53:59;;;;;;;1.52;1.42;;;26.20;54.00;;;;;;5019735;28;20021;-52
2022/08/04 09:56:51;;;;;;;1.30;1.20;;;26.20;54.00;;;;;;5038300;28;20375;-53
2022/08/04 09:59:26;;;;;;;1.50;1.40;;;26.20;54.00;;;;;;5019242;28;20037;-52
2022/08/04 10:01:53;;;;;;;;;;;26.20;54.00;;;;;;5069661;28;20126;-54
2022/08/04 10:04:19;;;;;;;1.45;1.35;;;26.20;53.90;;;;;;5037393;28;20729;-56
2022/08/04 10:07:03;;;;;;;1.52;1.42;;;26.20;54.00;;;;;;5053184;28;20033;-58
2022/08/04 10:09:59;;;;;;;1.35;1.25;;;26.20;54.10;;;;;;5034840;28;20659;-58
2022/08/04 10:12:28;;;;;;;;;;;26.20;54.10;;;;;;5038443;28;20025;-57
2022/08/04 10:15:13;;;;;;;1.20;1.08;;;26.20;54.00;;;;;;5038649;28;20366;-57
2022/08/04 10:18:15;;;;;;;1.23;1.13;;;26.20;54.00;;;;;;5020462;28;20060;-52
2022/08/04 10:21:01;;;;;;;1.55;1.45;;;26.20;54.10;;;;;;5019951;28;22052;-50
2022/08/04 10:23:53;;;;;;;1.40;1.30;;;26.20;54.00;;;;;;5035972;28;20036;-53
2022/08/04 10:26:35;;;;;;;1.27;1.17;;;26.30;54.10;;;;;;5036714;28;20219;-56
2022/08/04 10:29:18;;;;;;;1.25;1.15;;;26.30;54.00;;;;;;5021108;28;20033;-54
2022/08/04 10:32:06;;;;;;;1.42;1.30;;;26.30;54.00;;;;;;5037949;28;20330;-55
2022/08/04 10:34:41;;;;;;;1.20;1.10;;;26.20;53.90;;;;;;5068888;28;20029;-52
2022/08/04 10:37:12;;;;;;;3.45;1.33;;;26.30;54.00;;;;;;5036416;28;20097;-52
2022/08/04 10:43:01;;;;;;;1.63;1.52;;;26.30;54.10;;;;;;5036440;28;20056;-54
2022/08/04 10:45:46;;;;;;;1.60;1.50;;;26.30;53.90;;;;;;5020222;28;20025;-58
2022/08/04 10:48:40;;;;;;;1.40;1.30;;;26.30;54.10;;;;;;5055065;28;20486;-56
2022/08/04 10:51:19;;;;;;;1.55;1.45;;;26.30;54.00;;;;;;5069298;28;20033;-58
2022/08/04 10:53:44;;;;;;;1.83;1.30;;;26.30;53.90;;;;;;5036802;28;20060;-57
2022/08/04 10:56:14;;;;;;;1.30;1.20;;;26.30;53.90;;;;;;5053474;28;20099;-56
2022/08/04 10:58:44;;;;;;;1.73;1.63;;;26.40;54.00;;;;;;5038928;28;20033;-57
2022/08/04 11:01:15;;;;;;;1.83;1.70;;;26.30;54.00;;;;;;5040260;28;20053;-57
2022/08/04 11:03:48;;;;;;;1.50;1.40;;;26.30;54.00;;;;;;5039689;28;20041;-56
2022/08/04 11:06:14;;;;;;;1.33;1.23;;;26.40;54.00;;;;;;5039917;28;20089;-56
2022/08/04 11:08:49;;;;;;;1.92;1.67;;;26.40;54.10;;;;;;5040328;28;20248;-55
2022/08/04 11:11:26;;;;;;;;;;;26.40;54.10;;;;;;5039910;28;20120;-55
2022/08/04 11:14:08;;;;;;;1.30;1.20;;;26.30;54.10;;;;;;5039181;28;19909;-54
2022/08/04 11:16:50;;;;;;;1.60;1.50;;;26.30;54.00;;;;;;5072598;28;20174;-55
2022/08/04 11:19:51;;;;;;;1.35;1.25;;;26.30;54.10;;;;;;5038786;28;20485;-55
2022/08/04 11:22:26;;;;;;;1.70;1.35;;;26.30;54.10;;;;;;5038464;28;20031;-54
2022/08/04 11:25:13;;;;;;;1.30;1.20;;;26.40;54.20;;;;;;5041801;28;20025;-52
2022/08/04 11:28:22;;;;;;;1.45;1.35;;;26.40;54.30;;;;;;5039309;28;20732;-51
2022/08/04 11:31:04;;;;;;;1.50;1.35;;;26.40;54.20;;;;;;5038597;28;20394;-52
2022/08/04 11:33:50;;;;;;;1.63;1.52;;;26.40;54.30;;;;;;5040714;28;20056;-51
2022/08/04 11:36:20;;;;;;;1.70;1.55;;;26.40;54.30;;;;;;5038723;28;20079;-52
2022/08/04 11:39:06;;;;;;;1.50;1.40;;;26.40;54.30;;;;;;5038145;28;20752;-54
2022/08/04 11:41:50;;;;;;;;;;;26.40;54.20;;;;;;5039341;28;20033;-53
2022/08/04 11:44:36;;;;;;;1.50;1.40;;;26.40;54.20;;;;;;5041238;28;20314;-50
2022/08/04 11:47:04;;;;;;;1.58;1.48;;;26.40;54.30;;;;;;5041266;28;20481;-54
2022/08/04 11:49:40;;;;;;;1.67;1.50;;;26.40;54.40;;;;;;5056551;28;20040;-54
2022/08/04 11:52:05;;;;;;;1.55;1.45;;;26.40;54.40;;;;;;5039067;28;20021;-54
2022/08/04 11:54:32;;;;;;;1.73;1.60;;;26.50;54.50;;;;;;5040503;28;20036;-52
2022/08/04 11:56:57;;;;;;;1.52;1.40;;;26.50;54.40;;;;;;5040469;28;20025;-54
2022/08/04 11:59:23;;;;;;;1.52;1.42;;;26.50;54.50;;;;;;5056014;28;20715;-52
2022/08/04 12:02:22;;;;;;;1.75;1.65;;;26.50;54.50;;;;;;5055531;28;20057;-53
2022/08/04 12:04:59;;;;;;;1.88;1.48;;;26.50;54.40;;;;;;5039228;28;20040;-52
2022/08/04 12:07:59;;;;;;;1.27;1.20;;;26.50;54.40;;;;;;5071707;28;20029;-52
2022/08/04 12:10:40;;;;;;;1.88;1.65;;;26.50;54.40;;;;;;5037232;28;20017;-55
2022/08/04 12:13:45;;;;;;;1.50;1.40;;;26.50;54.50;;;;;;5056681;28;20033;-54
2022/08/04 12:16:15;;;;;;;1.70;1.55;;;26.50;54.50;;;;;;5038483;28;20493;-51
2022/08/04 12:18:51;;;;;;;1.75;1.40;;;26.50;54.50;;;;;;5037693;28;20048;-51
2022/08/04 12:21:40;;;;;;;1.50;1.40;;;26.50;54.50;;;;;;5055451;28;20032;-53
2022/08/04 12:24:12;;;;;;;2.08;1.52;;;26.50;54.60;;;;;;5055133;28;20116;-53
2022/08/04 12:26:41;;;;;;;1.77;1.67;;;26.50;54.50;;;;;;5055160;28;20053;-54
2022/08/04 12:29:07;;;;;;;1.45;1.27;;;26.50;54.50;;;;;;5038294;28;20040;-51
2022/08/04 12:31:52;;;;;;;1.80;1.40;;;26.60;54.60;;;;;;5054521;28;20044;-53
2022/08/04 12:34:31;;;;;;;1.58;1.48;;;26.60;54.60;;;;;;5034766;28;20051;-52
2022/08/04 12:37:27;;;;;;;2.00;1.80;;;26.60;54.60;;;;;;5061117;28;20403;-53
2022/08/04 12:39:52;;;;;;;;;;;26.60;54.70;;;;;;5040077;28;20118;-58
2022/08/04 12:42:50;;;;;;;1.63;1.52;;;26.60;54.70;;;;;;5039409;28;20356;-52
2022/08/04 12:45:15;;;;;;;2.00;1.80;;;26.60;54.70;;;;;;5039066;28;20102;-52
2022/08/04 12:47:41;;;;;;;1.80;1.70;;;26.60;54.70;;;;;;5037451;28;20568;-52
2022/08/04 12:50:07;;;;;;;1.60;1.50;;;26.60;54.70;;;;;;5030047;28;20458;-54
2022/08/04 12:52:39;;;;;;;1.70;1.60;;;26.60;54.70;;;;;;5053448;28;20063;-54
2022/08/04 12:55:05;;;;;;;1.50;1.40;;;26.60;54.70;;;;;;5040984;28;20025;-52
2022/08/04 12:57:31;;;;;;;1.50;1.40;;;26.70;54.90;;;;;;5054066;28;20029;-52
2022/08/04 12:59:56;;;;;;;1.85;1.60;;;26.70;54.80;;;;;;5036829;28;20021;-51
2022/08/04 13:02:26;;;;;;;2.17;1.85;;;26.70;54.80;;;;;;5054352;28;20394;-51
2022/08/04 13:04:55;;;;;;;1.67;1.55;;;26.70;54.90;;;;;;5021005;28;20505;-57
2022/08/04 13:07:22;;;;;;;1.38;1.27;;;26.70;54.80;;;;;;5054764;28;20045;-51
2022/08/04 13:09:48;;;;;;;1.88;1.77;;;26.70;54.80;;;;;;5036841;28;20025;-51
2022/08/04 13:12:19;;;;;;;1.85;1.75;;;26.70;54.80;;;;;;5053159;28;20109;-50
2022/08/04 13:14:47;;;;;;;2.38;1.70;;;26.70;54.90;;;;;;5038673;28;20500;-53
2022/08/04 13:17:12;;;;;;;1.92;1.80;;;26.70;54.90;;;;;;5053517;28;20033;-49
2022/08/04 13:19:38;;;;;;;1.73;1.63;;;26.80;55.00;;;;;;5037874;28;20556;-53
2022/08/04 13:22:04;;;;;;;1.60;1.50;;;26.80;55.00;;;;;;5035849;28;20043;-50
2022/08/04 13:24:30;;;;;;;1.77;1.67;;;26.80;55.10;;;;;;5038151;28;20074;-53
2022/08/04 13:27:14;;;;;;;1.48;1.38;;;26.80;55.00;;;;;;5037387;28;20028;-49
2022/08/04 13:29:44;;;;;;;1.50;1.40;;;26.70;54.80;;;;;;5052175;28;20666;-50
2022/08/04 13:32:09;;;;;;;2.45;2.25;;;26.80;54.90;;;;;;5036983;28;20097;-50
2022/08/04 13:34:36;;;;;;;1.77;1.67;;;26.80;54.90;;;;;;5036668;28;20033;-53
2022/08/04 13:37:02;;;;;;;1.70;1.60;;;26.80;54.90;;;;;;5036578;28;20028;-52
2022/08/04 13:39:27;;;;;;;1.50;1.40;;;26.80;54.90;;;;;;5035972;28;20548;-50
2022/08/04 13:41:54;;;;;;;1.77;1.67;;;26.80;55.00;;;;;;5038413;28;20422;-56
2022/08/04 13:44:22;;;;;;;2.00;1.80;;;26.80;55.00;;;;;;5053310;28;20047;-56
2022/08/04 13:46:59;;;;;;;1.83;1.70;;;26.80;55.10;;;;;;5036700;28;20057;-57